sensor_id;sensor_type;location;lat;lon;timestamp;temperature;humidity
13186;DHT22;6658;53.080;7.428;2022-10-16T00:00:40;12.40;99.90
13186;DHT22;6658;53.080;7.428;2022-10-16T00:03:07;12.40;99.90
13186;DHT22;6658;53.080;7.428;2022-10-16T00:05:37;12.50;99.90
13186;DHT22;6658;53.080;7.428;2022-10-16T00:08:03;12.50;99.90
13186;DHT22;6658;53.080;7.428;2022-10-16T00:10:29;12.50;99.90
13186;DHT22;6658;53.080;7.428;2022-10-16T00:12:54;12.50;99.90
13186;DHT22;6658;53.080;7.428;2022-10-16T00:15:20;12.50;99.90
13186;DHT22;6658;53.080;7.428;2022-10-16T00:17:46;12.50;99.90
13186;DHT22;6658;53.080;7.428;2022-10-16T00:20:11;12.50;99.90
13186;DHT22;6658;53.080;7.428;2022-10-16T00:22:37;12.40;99.90
13186;DHT22;6658;53.080;7.428;2022-10-16T00:25:03;12.40;99.90
13186;DHT22;6658;53.080;7.428;2022-10-16T00:27:28;12.40;99.90
13186;DHT22;6658;53.080;7.428;2022-10-16T00:29:54;12.40;99.90
13186;DHT22;6658;53.080;7.428;2022-10-16T00:32:20;12.40;99.90
13186;DHT22;6658;53.080;7.428;2022-10-16T00:34:46;12.40;99.90
13186;DHT22;6658;53.080;7.428;2022-10-16T00:37:12;12.50;99.90
13186;DHT22;6658;53.080;7.428;2022-10-16T00:39:38;12.50;99.90
13186;DHT22;6658;53.080;7.428;2022-10-16T00:42:04;12.40;99.90
13186;DHT22;6658;53.080;7.428;2022-10-16T00:47:15;12.40;99.90
13186;DHT22;6658;53.080;7.428;2022-10-16T00:49:42;12.40;99.90
13186;DHT22;6658;53.080;7.428;2022-10-16T00:52:10;12.40;99.90
13186;DHT22;6658;53.080;7.428;2022-10-16T00:54:36;12.40;99.90
13186;DHT22;6658;53.080;7.428;2022-10-16T00:57:04;12.40;99.90
13186;DHT22;6658;53.080;7.428;2022-10-16T00:59:37;12.40;99.90
13186;DHT22;6658;53.080;7.428;2022-10-16T01:02:05;12.40;99.90
13186;DHT22;6658;53.080;7.428;2022-10-16T01:04:36;12.50;99.90
13186;DHT22;6658;53.080;7.428;2022-10-16T01:07:35;12.50;99.90
13186;DHT22;6658;53.080;7.428;2022-10-16T01:10:27;12.50;99.90
13186;DHT22;6658;53.080;7.428;2022-10-16T01:13:01;12.60;99.90
13186;DHT22;6658;53.080;7.428;2022-10-16T01:15:35;12.60;99.90
13186;DHT22;6658;53.080;7.428;2022-10-16T01:18:21;12.60;99.90
13186;DHT22;6658;53.080;7.428;2022-10-16T01:21:01;12.50;99.90
13186;DHT22;6658;53.080;7.428;2022-10-16T01:29:13;12.50;99.90
13186;DHT22;6658;53.080;7.428;2022-10-16T01:31:44;12.50;99.90
13186;DHT22;6658;53.080;7.428;2022-10-16T01:34:16;12.50;99.90
13186;DHT22;6658;53.080;7.428;2022-10-16T01:36:50;12.50;99.90
13186;DHT22;6658;53.080;7.428;2022-10-16T01:39:21;12.40;99.90
13186;DHT22;6658;53.080;7.428;2022-10-16T01:41:59;12.50;99.90
13186;DHT22;6658;53.080;7.428;2022-10-16T01:44:29;12.50;99.90
13186;DHT22;6658;53.080;7.428;2022-10-16T01:46:56;12.50;99.90
13186;DHT22;6658;53.080;7.428;2022-10-16T01:49:25;12.40;99.90
13186;DHT22;6658;53.080;7.428;2022-10-16T01:51:54;12.50;99.90
13186;DHT22;6658;53.080;7.428;2022-10-16T01:54:23;12.40;99.90
13186;DHT22;6658;53.080;7.428;2022-10-16T01:56:51;12.50;99.90
13186;DHT22;6658;53.080;7.428;2022-10-16T01:59:19;12.50;99.90
13186;DHT22;6658;53.080;7.428;2022-10-16T02:01:56;12.50;99.90
13186;DHT22;6658;53.080;7.428;2022-10-16T02:04:37;12.50;99.90
13186;DHT22;6658;53.080;7.428;2022-10-16T02:07:04;12.60;99.90
13186;DHT22;6658;53.080;7.428;2022-10-16T02:09:32;12.60;99.90
13186;DHT22;6658;53.080;7.428;2022-10-16T02:12:00;12.60;99.90
13186;DHT22;6658;53.080;7.428;2022-10-16T02:14:29;12.60;99.90
13186;DHT22;6658;53.080;7.428;2022-10-16T02:16:54;12.60;99.90
13186;DHT22;6658;53.080;7.428;2022-10-16T02:19:21;12.60;99.90
13186;DHT22;6658;53.080;7.428;2022-10-16T02:21:51;12.60;99.90
13186;DHT22;6658;53.080;7.428;2022-10-16T02:29:18;12.50;99.90
13186;DHT22;6658;53.080;7.428;2022-10-16T02:31:49;12.50;99.90
13186;DHT22;6658;53.080;7.428;2022-10-16T02:34:17;12.50;99.90
13186;DHT22;6658;53.080;7.428;2022-10-16T02:36:44;12.50;99.90
13186;DHT22;6658;53.080;7.428;2022-10-16T02:39:11;12.50;99.90
13186;DHT22;6658;53.080;7.428;2022-10-16T02:41:37;12.50;99.90
13186;DHT22;6658;53.080;7.428;2022-10-16T02:44:03;12.60;99.90
13186;DHT22;6658;53.080;7.428;2022-10-16T02:46:28;12.70;99.90
13186;DHT22;6658;53.080;7.428;2022-10-16T02:48:54;12.70;99.90
13186;DHT22;6658;53.080;7.428;2022-10-16T02:51:20;12.70;99.90
13186;DHT22;6658;53.080;7.428;2022-10-16T02:53:45;12.80;99.90
13186;DHT22;6658;53.080;7.428;2022-10-16T02:56:11;12.90;99.90
13186;DHT22;6658;53.080;7.428;2022-10-16T02:58:37;12.90;99.90
13186;DHT22;6658;53.080;7.428;2022-10-16T03:01:02;12.90;99.90
13186;DHT22;6658;53.080;7.428;2022-10-16T03:03:28;13.00;99.90
13186;DHT22;6658;53.080;7.428;2022-10-16T03:05:54;13.00;99.90
13186;DHT22;6658;53.080;7.428;2022-10-16T03:08:19;13.00;99.90
13186;DHT22;6658;53.080;7.428;2022-10-16T03:10:49;13.00;99.90
13186;DHT22;6658;53.080;7.428;2022-10-16T03:13:15;13.10;99.90
13186;DHT22;6658;53.080;7.428;2022-10-16T03:15:40;13.10;99.90
13186;DHT22;6658;53.080;7.428;2022-10-16T03:18:06;13.10;99.90
13186;DHT22;6658;53.080;7.428;2022-10-16T03:20:32;13.20;99.90
13186;DHT22;6658;53.080;7.428;2022-10-16T03:22:57;13.20;99.90
13186;DHT22;6658;53.080;7.428;2022-10-16T03:25:23;13.20;99.90
13186;DHT22;6658;53.080;7.428;2022-10-16T03:27:49;13.20;99.90
13186;DHT22;6658;53.080;7.428;2022-10-16T03:30:14;13.20;99.90
13186;DHT22;6658;53.080;7.428;2022-10-16T03:32:41;13.20;99.90
13186;DHT22;6658;53.080;7.428;2022-10-16T03:35:08;13.20;99.90
13186;DHT22;6658;53.080;7.428;2022-10-16T03:37:34;13.20;99.90
13186;DHT22;6658;53.080;7.428;2022-10-16T03:40:00;13.20;99.90
13186;DHT22;6658;53.080;7.428;2022-10-16T03:42:26;13.20;99.90
13186;DHT22;6658;53.080;7.428;2022-10-16T03:44:51;13.20;99.90
13186;DHT22;6658;53.080;7.428;2022-10-16T03:47:17;13.20;99.90
13186;DHT22;6658;53.080;7.428;2022-10-16T03:49:47;13.20;99.90
13186;DHT22;6658;53.080;7.428;2022-10-16T03:52:13;13.20;99.90
13186;DHT22;6658;53.080;7.428;2022-10-16T03:54:38;13.20;99.90
13186;DHT22;6658;53.080;7.428;2022-10-16T03:57:04;13.20;99.90
13186;DHT22;6658;53.080;7.428;2022-10-16T03:59:30;13.20;99.90
13186;DHT22;6658;53.080;7.428;2022-10-16T04:01:55;13.20;99.90
13186;DHT22;6658;53.080;7.428;2022-10-16T04:04:21;13.20;99.90
13186;DHT22;6658;53.080;7.428;2022-10-16T04:06:47;13.20;99.90
13186;DHT22;6658;53.080;7.428;2022-10-16T04:09:12;13.20;99.90
13186;DHT22;6658;53.080;7.428;2022-10-16T04:11:38;13.20;99.90
13186;DHT22;6658;53.080;7.428;2022-10-16T04:14:04;13.20;99.90
13186;DHT22;6658;53.080;7.428;2022-10-16T04:16:30;13.20;99.90
13186;DHT22;6658;53.080;7.428;2022-10-16T04:18:55;13.30;99.90
13186;DHT22;6658;53.080;7.428;2022-10-16T04:21:21;13.30;99.90
13186;DHT22;6658;53.080;7.428;2022-10-16T04:23:47;13.30;99.90
13186;DHT22;6658;53.080;7.428;2022-10-16T04:26:13;13.30;99.90
13186;DHT22;6658;53.080;7.428;2022-10-16T04:28:39;13.30;99.90
13186;DHT22;6658;53.080;7.428;2022-10-16T04:31:06;13.30;99.90
13186;DHT22;6658;53.080;7.428;2022-10-16T04:33:32;13.20;99.90
13186;DHT22;6658;53.080;7.428;2022-10-16T04:36:02;13.20;99.90
13186;DHT22;6658;53.080;7.428;2022-10-16T04:38:29;13.20;99.90
13186;DHT22;6658;53.080;7.428;2022-10-16T04:40:55;13.10;99.90
13186;DHT22;6658;53.080;7.428;2022-10-16T04:43:21;13.10;99.90
13186;DHT22;6658;53.080;7.428;2022-10-16T04:45:46;13.00;99.90
13186;DHT22;6658;53.080;7.428;2022-10-16T04:48:12;13.00;99.90
13186;DHT22;6658;53.080;7.428;2022-10-16T04:50:38;12.90;99.90
13186;DHT22;6658;53.080;7.428;2022-10-16T04:53:04;12.80;99.90
13186;DHT22;6658;53.080;7.428;2022-10-16T04:55:29;12.70;99.90
13186;DHT22;6658;53.080;7.428;2022-10-16T04:57:55;12.70;99.90
13186;DHT22;6658;53.080;7.428;2022-10-16T05:00:21;12.60;99.90
13186;DHT22;6658;53.080;7.428;2022-10-16T05:02:49;12.60;99.90
13186;DHT22;6658;53.080;7.428;2022-10-16T05:05:14;12.50;99.90
13186;DHT22;6658;53.080;7.428;2022-10-16T05:07:40;12.50;99.90
13186;DHT22;6658;53.080;7.428;2022-10-16T05:10:06;12.50;99.90
13186;DHT22;6658;53.080;7.428;2022-10-16T05:12:32;12.50;99.90
13186;DHT22;6658;53.080;7.428;2022-10-16T05:14:58;12.60;99.90
13186;DHT22;6658;53.080;7.428;2022-10-16T05:17:24;12.70;99.90
13186;DHT22;6658;53.080;7.428;2022-10-16T05:19:50;12.70;99.90
13186;DHT22;6658;53.080;7.428;2022-10-16T05:22:16;12.70;99.90
13186;DHT22;6658;53.080;7.428;2022-10-16T05:24:42;12.80;99.90
13186;DHT22;6658;53.080;7.428;2022-10-16T05:27:07;12.80;99.90
13186;DHT22;6658;53.080;7.428;2022-10-16T05:29:33;12.80;99.90
13186;DHT22;6658;53.080;7.428;2022-10-16T05:31:59;12.80;99.90
13186;DHT22;6658;53.080;7.428;2022-10-16T05:34:24;12.90;99.90
13186;DHT22;6658;53.080;7.428;2022-10-16T05:36:50;12.90;99.90
13186;DHT22;6658;53.080;7.428;2022-10-16T05:39:16;12.90;99.90
13186;DHT22;6658;53.080;7.428;2022-10-16T05:41:42;12.90;99.90
13186;DHT22;6658;53.080;7.428;2022-10-16T05:44:08;12.90;99.90
13186;DHT22;6658;53.080;7.428;2022-10-16T05:46:34;12.90;99.90
13186;DHT22;6658;53.080;7.428;2022-10-16T05:48:59;12.80;99.90
13186;DHT22;6658;53.080;7.428;2022-10-16T05:51:25;12.80;99.90
13186;DHT22;6658;53.080;7.428;2022-10-16T05:53:52;12.90;99.90
13186;DHT22;6658;53.080;7.428;2022-10-16T05:56:18;12.90;99.90
13186;DHT22;6658;53.080;7.428;2022-10-16T05:58:43;12.90;99.90
13186;DHT22;6658;53.080;7.428;2022-10-16T06:01:14;12.90;99.90
13186;DHT22;6658;53.080;7.428;2022-10-16T06:03:40;12.90;99.90
13186;DHT22;6658;53.080;7.428;2022-10-16T06:06:16;12.90;99.90
13186;DHT22;6658;53.080;7.428;2022-10-16T06:08:43;12.90;99.90
13186;DHT22;6658;53.080;7.428;2022-10-16T06:11:14;12.90;99.90
13186;DHT22;6658;53.080;7.428;2022-10-16T06:13:40;12.90;99.90
13186;DHT22;6658;53.080;7.428;2022-10-16T06:16:08;13.00;99.90
13186;DHT22;6658;53.080;7.428;2022-10-16T06:18:34;13.00;99.90
13186;DHT22;6658;53.080;7.428;2022-10-16T06:20:59;13.00;99.90
13186;DHT22;6658;53.080;7.428;2022-10-16T06:23:28;13.00;99.90
13186;DHT22;6658;53.080;7.428;2022-10-16T06:25:53;13.10;99.90
13186;DHT22;6658;53.080;7.428;2022-10-16T06:28:19;13.10;99.90
13186;DHT22;6658;53.080;7.428;2022-10-16T06:30:44;13.10;99.90
13186;DHT22;6658;53.080;7.428;2022-10-16T06:33:11;13.10;99.90
13186;DHT22;6658;53.080;7.428;2022-10-16T06:35:37;13.20;99.90
13186;DHT22;6658;53.080;7.428;2022-10-16T06:38:03;13.20;99.90
13186;DHT22;6658;53.080;7.428;2022-10-16T06:40:28;13.20;99.90
13186;DHT22;6658;53.080;7.428;2022-10-16T06:42:57;13.20;99.90
13186;DHT22;6658;53.080;7.428;2022-10-16T06:45:22;13.30;99.90
13186;DHT22;6658;53.080;7.428;2022-10-16T06:47:48;13.30;99.90
13186;DHT22;6658;53.080;7.428;2022-10-16T06:50:14;13.30;99.90
13186;DHT22;6658;53.080;7.428;2022-10-16T06:52:40;13.40;99.90
13186;DHT22;6658;53.080;7.428;2022-10-16T06:55:06;13.40;99.90
13186;DHT22;6658;53.080;7.428;2022-10-16T06:57:31;13.50;99.90
13186;DHT22;6658;53.080;7.428;2022-10-16T06:59:57;13.50;99.90
13186;DHT22;6658;53.080;7.428;2022-10-16T07:02:23;13.60;99.90
13186;DHT22;6658;53.080;7.428;2022-10-16T07:04:48;13.70;99.90
13186;DHT22;6658;53.080;7.428;2022-10-16T07:07:14;13.70;99.90
13186;DHT22;6658;53.080;7.428;2022-10-16T07:09:40;13.70;99.90
13186;DHT22;6658;53.080;7.428;2022-10-16T07:12:06;13.80;99.90
13186;DHT22;6658;53.080;7.428;2022-10-16T07:14:31;13.80;99.90
13186;DHT22;6658;53.080;7.428;2022-10-16T07:16:57;13.90;99.90
13186;DHT22;6658;53.080;7.428;2022-10-16T07:19:23;13.90;99.90
13186;DHT22;6658;53.080;7.428;2022-10-16T07:21:49;14.00;99.90
13186;DHT22;6658;53.080;7.428;2022-10-16T07:24:15;14.10;99.90
13186;DHT22;6658;53.080;7.428;2022-10-16T07:26:43;14.20;99.90
13186;DHT22;6658;53.080;7.428;2022-10-16T07:29:17;14.20;99.90
13186;DHT22;6658;53.080;7.428;2022-10-16T07:31:43;14.20;99.90
13186;DHT22;6658;53.080;7.428;2022-10-16T07:34:10;14.30;99.90
13186;DHT22;6658;53.080;7.428;2022-10-16T07:36:36;14.40;99.90
13186;DHT22;6658;53.080;7.428;2022-10-16T07:39:02;14.40;99.90
13186;DHT22;6658;53.080;7.428;2022-10-16T07:41:28;14.50;99.90
13186;DHT22;6658;53.080;7.428;2022-10-16T07:43:54;14.50;99.90
13186;DHT22;6658;53.080;7.428;2022-10-16T07:46:22;14.50;99.90
13186;DHT22;6658;53.080;7.428;2022-10-16T07:48:48;14.60;99.90
13186;DHT22;6658;53.080;7.428;2022-10-16T07:51:19;14.60;99.90
13186;DHT22;6658;53.080;7.428;2022-10-16T07:53:45;14.70;99.90
13186;DHT22;6658;53.080;7.428;2022-10-16T07:56:12;14.70;99.90
13186;DHT22;6658;53.080;7.428;2022-10-16T07:58:38;14.70;99.90
13186;DHT22;6658;53.080;7.428;2022-10-16T08:01:06;14.80;99.90
13186;DHT22;6658;53.080;7.428;2022-10-16T08:03:32;14.90;99.90
13186;DHT22;6658;53.080;7.428;2022-10-16T08:05:59;15.00;99.90
13186;DHT22;6658;53.080;7.428;2022-10-16T08:08:26;15.00;99.90
13186;DHT22;6658;53.080;7.428;2022-10-16T08:10:52;15.10;99.90
13186;DHT22;6658;53.080;7.428;2022-10-16T08:13:18;15.20;99.90
13186;DHT22;6658;53.080;7.428;2022-10-16T08:15:44;15.30;99.90
13186;DHT22;6658;53.080;7.428;2022-10-16T08:18:11;15.50;99.90
13186;DHT22;6658;53.080;7.428;2022-10-16T08:20:37;15.60;99.90
13186;DHT22;6658;53.080;7.428;2022-10-16T08:23:04;15.70;99.90
13186;DHT22;6658;53.080;7.428;2022-10-16T08:25:29;15.80;99.90
13186;DHT22;6658;53.080;7.428;2022-10-16T08:27:55;16.00;99.90
13186;DHT22;6658;53.080;7.428;2022-10-16T08:30:23;16.10;99.90
13186;DHT22;6658;53.080;7.428;2022-10-16T08:32:49;16.20;99.90
13186;DHT22;6658;53.080;7.428;2022-10-16T08:35:15;16.20;99.90
13186;DHT22;6658;53.080;7.428;2022-10-16T08:37:41;16.20;99.90
13186;DHT22;6658;53.080;7.428;2022-10-16T08:40:16;16.30;99.90
13186;DHT22;6658;53.080;7.428;2022-10-16T08:50:52;15.90;99.90
13186;DHT22;6658;53.080;7.428;2022-10-16T08:53:40;15.80;99.90
13186;DHT22;6658;53.080;7.428;2022-10-16T08:56:07;15.80;99.90
13186;DHT22;6658;53.080;7.428;2022-10-16T08:58:33;15.80;99.90
13186;DHT22;6658;53.080;7.428;2022-10-16T09:01:01;15.70;99.90
13186;DHT22;6658;53.080;7.428;2022-10-16T09:11:45;16.10;99.90
13186;DHT22;6658;53.080;7.428;2022-10-16T09:22:31;16.40;99.90
13186;DHT22;6658;53.080;7.428;2022-10-16T09:25:00;16.60;99.90
13186;DHT22;6658;53.080;7.428;2022-10-16T09:27:35;16.70;99.90
13186;DHT22;6658;53.080;7.428;2022-10-16T09:30:06;16.80;99.90
13186;DHT22;6658;53.080;7.428;2022-10-16T09:32:35;17.00;99.90
13186;DHT22;6658;53.080;7.428;2022-10-16T09:35:01;17.00;99.90
13186;DHT22;6658;53.080;7.428;2022-10-16T09:37:27;17.00;99.90
13186;DHT22;6658;53.080;7.428;2022-10-16T09:39:54;17.10;99.90
13186;DHT22;6658;53.080;7.428;2022-10-16T09:42:21;17.10;99.90
13186;DHT22;6658;53.080;7.428;2022-10-16T09:44:50;17.10;99.90
13186;DHT22;6658;53.080;7.428;2022-10-16T09:47:19;17.00;99.90
13186;DHT22;6658;53.080;7.428;2022-10-16T09:52:25;16.80;99.90
13186;DHT22;6658;53.080;7.428;2022-10-16T09:54:56;16.60;99.90
13186;DHT22;6658;53.080;7.428;2022-10-16T09:57:22;16.50;99.90
13186;DHT22;6658;53.080;7.428;2022-10-16T09:59:58;16.40;99.90
13186;DHT22;6658;53.080;7.428;2022-10-16T10:02:35;16.30;99.90
13186;DHT22;6658;53.080;7.428;2022-10-16T10:05:02;16.30;99.90
13186;DHT22;6658;53.080;7.428;2022-10-16T10:07:38;16.20;99.90
13186;DHT22;6658;53.080;7.428;2022-10-16T10:10:20;16.20;99.90
13186;DHT22;6658;53.080;7.428;2022-10-16T10:12:46;16.20;99.90
13186;DHT22;6658;53.080;7.428;2022-10-16T10:15:13;16.30;99.90
13186;DHT22;6658;53.080;7.428;2022-10-16T10:17:47;16.30;99.90
13186;DHT22;6658;53.080;7.428;2022-10-16T10:22:55;16.40;99.90
13186;DHT22;6658;53.080;7.428;2022-10-16T10:36:56;16.60;99.90
13186;DHT22;6658;53.080;7.428;2022-10-16T10:39:31;16.70;99.90
13186;DHT22;6658;53.080;7.428;2022-10-16T10:42:11;16.80;99.90
13186;DHT22;6658;53.080;7.428;2022-10-16T10:45:16;17.10;99.90
13186;DHT22;6658;53.080;7.428;2022-10-16T10:47:52;17.00;99.90
13186;DHT22;6658;53.080;7.428;2022-10-16T10:50:31;17.20;99.90
13186;DHT22;6658;53.080;7.428;2022-10-16T10:53:18;17.10;99.90
13186;DHT22;6658;53.080;7.428;2022-10-16T10:56:00;17.10;99.90
13186;DHT22;6658;53.080;7.428;2022-10-16T11:01:20;17.00;99.90
13186;DHT22;6658;53.080;7.428;2022-10-16T11:06:50;16.90;99.90
13186;DHT22;6658;53.080;7.428;2022-10-16T11:09:24;16.90;99.90
13186;DHT22;6658;53.080;7.428;2022-10-16T11:12:09;17.00;99.90
13186;DHT22;6658;53.080;7.428;2022-10-16T11:14:54;17.10;99.90
13186;DHT22;6658;53.080;7.428;2022-10-16T11:17:34;17.00;99.90
13186;DHT22;6658;53.080;7.428;2022-10-16T11:20:13;17.00;99.90
13186;DHT22;6658;53.080;7.428;2022-10-16T11:23:04;17.00;99.90
13186;DHT22;6658;53.080;7.428;2022-10-16T11:25:32;17.10;99.90
13186;DHT22;6658;53.080;7.428;2022-10-16T11:30:26;17.20;99.90
13186;DHT22;6658;53.080;7.428;2022-10-16T11:33:10;17.30;99.90
13186;DHT22;6658;53.080;7.428;2022-10-16T11:35:50;17.30;99.90
13186;DHT22;6658;53.080;7.428;2022-10-16T11:38:48;17.20;99.90
13186;DHT22;6658;53.080;7.428;2022-10-16T11:41:34;17.10;99.90
13186;DHT22;6658;53.080;7.428;2022-10-16T11:49:41;17.40;99.90
13186;DHT22;6658;53.080;7.428;2022-10-16T11:52:23;17.50;99.90
13186;DHT22;6658;53.080;7.428;2022-10-16T11:57:33;17.70;99.90
13186;DHT22;6658;53.080;7.428;2022-10-16T12:00:10;17.80;99.90
13186;DHT22;6658;53.080;7.428;2022-10-16T12:08:35;17.40;99.90
13186;DHT22;6658;53.080;7.428;2022-10-16T12:11:31;17.20;99.90
13186;DHT22;6658;53.080;7.428;2022-10-16T12:16:54;17.20;99.90
13186;DHT22;6658;53.080;7.428;2022-10-16T12:19:20;17.20;99.90
13186;DHT22;6658;53.080;7.428;2022-10-16T12:21:47;17.10;99.90
13186;DHT22;6658;53.080;7.428;2022-10-16T12:24:50;17.10;99.90
13186;DHT22;6658;53.080;7.428;2022-10-16T12:30:00;17.00;99.90
13186;DHT22;6658;53.080;7.428;2022-10-16T12:32:37;17.10;99.90
13186;DHT22;6658;53.080;7.428;2022-10-16T12:35:06;17.10;99.90
13186;DHT22;6658;53.080;7.428;2022-10-16T12:37:42;17.10;99.90
13186;DHT22;6658;53.080;7.428;2022-10-16T12:42:50;17.20;99.90
13186;DHT22;6658;53.080;7.428;2022-10-16T12:45:33;17.30;99.90
13186;DHT22;6658;53.080;7.428;2022-10-16T12:48:01;17.30;99.90
13186;DHT22;6658;53.080;7.428;2022-10-16T12:52:56;17.40;99.90
13186;DHT22;6658;53.080;7.428;2022-10-16T12:55:22;17.40;99.90
13186;DHT22;6658;53.080;7.428;2022-10-16T12:58:17;17.40;99.90
13186;DHT22;6658;53.080;7.428;2022-10-16T13:00:57;17.50;99.90
13186;DHT22;6658;53.080;7.428;2022-10-16T13:07:17;17.60;99.90
13186;DHT22;6658;53.080;7.428;2022-10-16T13:15:41;17.40;99.90
13186;DHT22;6658;53.080;7.428;2022-10-16T13:21:08;17.30;99.90
13186;DHT22;6658;53.080;7.428;2022-10-16T13:29:31;17.50;99.90
13186;DHT22;6658;53.080;7.428;2022-10-16T13:31:58;17.50;99.90
13186;DHT22;6658;53.080;7.428;2022-10-16T13:34:25;17.60;99.90
13186;DHT22;6658;53.080;7.428;2022-10-16T13:36:52;17.60;99.90
13186;DHT22;6658;53.080;7.428;2022-10-16T13:39:22;17.50;99.90
13186;DHT22;6658;53.080;7.428;2022-10-16T13:42:09;17.40;99.90
13186;DHT22;6658;53.080;7.428;2022-10-16T13:44:49;17.40;99.90
13186;DHT22;6658;53.080;7.428;2022-10-16T13:47:27;17.50;99.90
13186;DHT22;6658;53.080;7.428;2022-10-16T13:50:15;17.70;99.90
13186;DHT22;6658;53.080;7.428;2022-10-16T13:52:41;17.90;99.90
13186;DHT22;6658;53.080;7.428;2022-10-16T13:55:15;18.00;99.90
13186;DHT22;6658;53.080;7.428;2022-10-16T13:57:41;18.10;99.90
13186;DHT22;6658;53.080;7.428;2022-10-16T14:00:22;18.20;99.90
13186;DHT22;6658;53.080;7.428;2022-10-16T14:03:13;18.10;99.90
13186;DHT22;6658;53.080;7.428;2022-10-16T14:05:48;18.00;99.90
13186;DHT22;6658;53.080;7.428;2022-10-16T14:08:14;17.90;99.90
13186;DHT22;6658;53.080;7.428;2022-10-16T14:10:40;17.90;99.90
13186;DHT22;6658;53.080;7.428;2022-10-16T14:13:07;17.80;99.90
13186;DHT22;6658;53.080;7.428;2022-10-16T14:15:35;17.80;99.90
13186;DHT22;6658;53.080;7.428;2022-10-16T14:18:02;17.70;99.90
13186;DHT22;6658;53.080;7.428;2022-10-16T14:20:33;17.60;99.90
13186;DHT22;6658;53.080;7.428;2022-10-16T14:23:49;17.50;99.90
13186;DHT22;6658;53.080;7.428;2022-10-16T14:25:51;17.40;99.90
13186;DHT22;6658;53.080;7.428;2022-10-16T14:28:18;17.40;99.90
13186;DHT22;6658;53.080;7.428;2022-10-16T14:30:54;17.40;99.90
13186;DHT22;6658;53.080;7.428;2022-10-16T14:33:31;17.40;99.90
13186;DHT22;6658;53.080;7.428;2022-10-16T14:38:43;17.20;99.90
13186;DHT22;6658;53.080;7.428;2022-10-16T14:41:13;17.20;99.90
13186;DHT22;6658;53.080;7.428;2022-10-16T14:43:42;17.00;99.90
13186;DHT22;6658;53.080;7.428;2022-10-16T14:46:16;17.00;99.90
13186;DHT22;6658;53.080;7.428;2022-10-16T14:48:49;16.80;99.90
13186;DHT22;6658;53.080;7.428;2022-10-16T14:51:17;16.70;99.90
13186;DHT22;6658;53.080;7.428;2022-10-16T14:53:43;16.60;99.90
13186;DHT22;6658;53.080;7.428;2022-10-16T14:56:18;16.60;99.90
13186;DHT22;6658;53.080;7.428;2022-10-16T14:58:44;16.50;99.90
13186;DHT22;6658;53.080;7.428;2022-10-16T15:01:10;16.60;99.90
13186;DHT22;6658;53.080;7.428;2022-10-16T15:03:37;16.50;99.90
13186;DHT22;6658;53.080;7.428;2022-10-16T15:06:03;16.50;99.90
13186;DHT22;6658;53.080;7.428;2022-10-16T15:08:29;16.50;99.90
13186;DHT22;6658;53.080;7.428;2022-10-16T15:10:55;16.50;99.90
13186;DHT22;6658;53.080;7.428;2022-10-16T15:13:20;16.50;99.90
13186;DHT22;6658;53.080;7.428;2022-10-16T15:15:47;16.40;99.90
13186;DHT22;6658;53.080;7.428;2022-10-16T15:18:14;16.40;99.90
13186;DHT22;6658;53.080;7.428;2022-10-16T15:20:47;16.30;99.90
13186;DHT22;6658;53.080;7.428;2022-10-16T15:23:15;16.30;99.90
13186;DHT22;6658;53.080;7.428;2022-10-16T15:25:51;16.20;99.90
13186;DHT22;6658;53.080;7.428;2022-10-16T15:28:18;16.20;99.90
13186;DHT22;6658;53.080;7.428;2022-10-16T15:30:45;16.10;99.90
13186;DHT22;6658;53.080;7.428;2022-10-16T15:33:16;16.10;99.90
13186;DHT22;6658;53.080;7.428;2022-10-16T15:35:42;16.00;99.90
13186;DHT22;6658;53.080;7.428;2022-10-16T15:38:12;16.00;99.90
13186;DHT22;6658;53.080;7.428;2022-10-16T15:40:38;15.90;99.90
13186;DHT22;6658;53.080;7.428;2022-10-16T15:43:04;15.80;99.90
13186;DHT22;6658;53.080;7.428;2022-10-16T15:45:29;15.80;99.90
13186;DHT22;6658;53.080;7.428;2022-10-16T15:47:55;15.70;99.90
13186;DHT22;6658;53.080;7.428;2022-10-16T15:50:21;15.60;99.90
13186;DHT22;6658;53.080;7.428;2022-10-16T15:52:46;15.50;99.90
13186;DHT22;6658;53.080;7.428;2022-10-16T15:55:13;15.40;99.90
13186;DHT22;6658;53.080;7.428;2022-10-16T15:57:40;15.30;99.90
13186;DHT22;6658;53.080;7.428;2022-10-16T16:00:10;15.30;99.90
13186;DHT22;6658;53.080;7.428;2022-10-16T16:02:36;15.20;99.90
13186;DHT22;6658;53.080;7.428;2022-10-16T16:05:02;15.10;99.90
13186;DHT22;6658;53.080;7.428;2022-10-16T16:07:28;15.00;99.90
13186;DHT22;6658;53.080;7.428;2022-10-16T16:09:53;14.90;99.90
13186;DHT22;6658;53.080;7.428;2022-10-16T16:12:19;14.80;99.90
13186;DHT22;6658;53.080;7.428;2022-10-16T16:14:45;14.70;99.90
13186;DHT22;6658;53.080;7.428;2022-10-16T16:17:13;14.60;99.90
13186;DHT22;6658;53.080;7.428;2022-10-16T16:19:39;14.50;99.90
13186;DHT22;6658;53.080;7.428;2022-10-16T16:22:05;14.50;99.90
13186;DHT22;6658;53.080;7.428;2022-10-16T16:24:30;14.40;99.90
13186;DHT22;6658;53.080;7.428;2022-10-16T16:26:56;14.20;99.90
13186;DHT22;6658;53.080;7.428;2022-10-16T16:29:22;14.20;99.90
13186;DHT22;6658;53.080;7.428;2022-10-16T16:31:47;14.00;99.90
13186;DHT22;6658;53.080;7.428;2022-10-16T16:34:14;14.00;99.90
13186;DHT22;6658;53.080;7.428;2022-10-16T16:36:39;13.90;99.90
13186;DHT22;6658;53.080;7.428;2022-10-16T16:39:06;13.80;99.90
13186;DHT22;6658;53.080;7.428;2022-10-16T16:41:32;13.70;99.90
13186;DHT22;6658;53.080;7.428;2022-10-16T16:44:03;13.70;99.90
13186;DHT22;6658;53.080;7.428;2022-10-16T16:46:31;13.60;99.90
13186;DHT22;6658;53.080;7.428;2022-10-16T16:48:58;13.60;99.90
13186;DHT22;6658;53.080;7.428;2022-10-16T16:51:24;13.50;99.90
13186;DHT22;6658;53.080;7.428;2022-10-16T16:53:51;13.40;99.90
13186;DHT22;6658;53.080;7.428;2022-10-16T16:56:18;13.30;99.90
13186;DHT22;6658;53.080;7.428;2022-10-16T16:58:48;13.20;99.90
13186;DHT22;6658;53.080;7.428;2022-10-16T17:01:14;13.10;99.90
13186;DHT22;6658;53.080;7.428;2022-10-16T17:03:43;13.00;99.90
13186;DHT22;6658;53.080;7.428;2022-10-16T17:06:13;13.00;99.90
13186;DHT22;6658;53.080;7.428;2022-10-16T17:08:42;12.90;99.90
13186;DHT22;6658;53.080;7.428;2022-10-16T17:11:13;12.90;99.90
13186;DHT22;6658;53.080;7.428;2022-10-16T17:13:39;12.80;99.90
13186;DHT22;6658;53.080;7.428;2022-10-16T17:16:05;12.60;99.90
13186;DHT22;6658;53.080;7.428;2022-10-16T17:18:32;12.80;99.90
13186;DHT22;6658;53.080;7.428;2022-10-16T17:21:04;12.80;99.90
13186;DHT22;6658;53.080;7.428;2022-10-16T17:23:30;12.80;99.90
13186;DHT22;6658;53.080;7.428;2022-10-16T17:25:56;12.80;99.90
13186;DHT22;6658;53.080;7.428;2022-10-16T17:28:22;12.70;99.90
13186;DHT22;6658;53.080;7.428;2022-10-16T17:30:48;12.70;99.90
13186;DHT22;6658;53.080;7.428;2022-10-16T17:33:14;12.60;99.90
13186;DHT22;6658;53.080;7.428;2022-10-16T17:35:44;12.50;99.90
13186;DHT22;6658;53.080;7.428;2022-10-16T17:38:13;12.50;99.90
13186;DHT22;6658;53.080;7.428;2022-10-16T17:40:39;12.40;99.90
13186;DHT22;6658;53.080;7.428;2022-10-16T17:43:05;12.30;99.90
13186;DHT22;6658;53.080;7.428;2022-10-16T17:45:35;12.20;99.90